Destinations Ibiza Airport

Ibiza Airport (LEIB / IBZ)

Flights to Ibiza Airport

Flight number From ETE Dispatch
SPY-2228 EGFF Cardiff International Airport 02:40

Flights from Ibiza Airport

Flight number To ETE Dispatch
SPY-2229 EGFF Cardiff International Airport 02:40
About

Ibiza Airport facts

Ibiza Airport is located in Ibiza at an elevation of 7.3 meters or 24 feet.

Currently, Speedy Airlines serves 2 flights to and from Ibiza Airport.

Detailed airport info

Route map

Weather

Current weather

METAR

METAR

Metar data retrieved Sunday, 21 July 2024 at 19:25 UTC

LEIB 211900Z 10009KT 070V140 9999 SCT018 26/21 Q1013 NOSIG
Wind Temperature
9 kt 26c